sensor_id;sensor_type;location;lat;lon;timestamp;pressure;altitude;pressure_sealevel;temperature;humidity
35989;BME280;22064;42.672;23.282;2023-03-19T00:02:16;95186.03;;;1.00;100.00
35989;BME280;22064;42.672;23.282;2023-03-19T00:04:42;95202.28;;;1.15;100.00
35989;BME280;22064;42.672;23.282;2023-03-19T00:07:07;95187.84;;;1.14;100.00
35989;BME280;22064;42.672;23.282;2023-03-19T00:09:33;95187.84;;;1.14;100.00
35989;BME280;22064;42.672;23.282;2023-03-19T00:11:59;95171.03;;;1.12;100.00
35989;BME280;22064;42.672;23.282;2023-03-19T00:14:25;95181.44;;;1.19;100.00
35989;BME280;22064;42.672;23.282;2023-03-19T00:16:51;95186.56;;;1.19;100.00
35989;BME280;22064;42.672;23.282;2023-03-19T00:19:17;95186.06;;;0.92;100.00
35989;BME280;22064;42.672;23.282;2023-03-19T00:21:43;95187.75;;;0.68;100.00
35989;BME280;22064;42.672;23.282;2023-03-19T00:24:09;95181.28;;;0.50;100.00
35989;BME280;22064;42.672;23.282;2023-03-19T00:26:35;95183.56;;;0.36;100.00
35989;BME280;22064;42.672;23.282;2023-03-19T00:29:02;95161.63;;;0.34;100.00
35989;BME280;22064;42.672;23.282;2023-03-19T00:31:29;95173.75;;;0.56;100.00
35989;BME280;22064;42.672;23.282;2023-03-19T00:33:58;95170.34;;;0.64;100.00
35989;BME280;22064;42.672;23.282;2023-03-19T00:36:25;95171.34;;;0.46;100.00
35989;BME280;22064;42.672;23.282;2023-03-19T00:38:51;95161.75;;;0.49;100.00
35989;BME280;22064;42.672;23.282;2023-03-19T00:41:17;95173.31;;;0.44;100.00
35989;BME280;22064;42.672;23.282;2023-03-19T00:43:45;95151.19;;;0.43;100.00
35989;BME280;22064;42.672;23.282;2023-03-19T00:46:12;95166.00;;;0.64;100.00
35989;BME280;22064;42.672;23.282;2023-03-19T00:48:42;95135.00;;;0.51;100.00
35989;BME280;22064;42.672;23.282;2023-03-19T00:51:09;95157.94;;;0.76;100.00
35989;BME280;22064;42.672;23.282;2023-03-19T00:53:39;95140.16;;;0.74;100.00
35989;BME280;22064;42.672;23.282;2023-03-19T00:56:07;95156.16;;;0.84;100.00
35989;BME280;22064;42.672;23.282;2023-03-19T00:58:34;95141.28;;;0.72;100.00
35989;BME280;22064;42.672;23.282;2023-03-19T01:01:04;95148.94;;;0.80;100.00
35989;BME280;22064;42.672;23.282;2023-03-19T01:03:30;95142.91;;;0.73;100.00
35989;BME280;22064;42.672;23.282;2023-03-19T01:05:59;95142.81;;;0.89;100.00
35989;BME280;22064;42.672;23.282;2023-03-19T01:08:25;95140.88;;;0.91;100.00
35989;BME280;22064;42.672;23.282;2023-03-19T01:10:52;95138.34;;;0.83;100.00
35989;BME280;22064;42.672;23.282;2023-03-19T01:13:18;95145.81;;;0.69;100.00
35989;BME280;22064;42.672;23.282;2023-03-19T01:15:44;95135.16;;;0.81;100.00
35989;BME280;22064;42.672;23.282;2023-03-19T01:18:11;95135.34;;;0.79;100.00
35989;BME280;22064;42.672;23.282;2023-03-19T01:20:39;95135.16;;;0.81;100.00
35989;BME280;22064;42.672;23.282;2023-03-19T01:23:06;95129.69;;;0.84;100.00
35989;BME280;22064;42.672;23.282;2023-03-19T01:25:33;95129.22;;;0.80;100.00
35989;BME280;22064;42.672;23.282;2023-03-19T01:28:01;95123.66;;;0.77;100.00
35989;BME280;22064;42.672;23.282;2023-03-19T01:30:27;95130.75;;;0.66;100.00
35989;BME280;22064;42.672;23.282;2023-03-19T01:33:12;95132.56;;;0.58;100.00
35989;BME280;22064;42.672;23.282;2023-03-19T01:35:59;95133.59;;;0.72;100.00
35989;BME280;22064;42.672;23.282;2023-03-19T01:38:34;95136.88;;;0.65;100.00
35989;BME280;22064;42.672;23.282;2023-03-19T01:41:03;95138.31;;;0.60;100.00
35989;BME280;22064;42.672;23.282;2023-03-19T01:43:30;95140.47;;;0.48;100.00
35989;BME280;22064;42.672;23.282;2023-03-19T01:46:28;95139.44;;;0.65;100.00
35989;BME280;22064;42.672;23.282;2023-03-19T01:49:14;95143.56;;;0.66;100.00
35989;BME280;22064;42.672;23.282;2023-03-19T01:51:46;95131.38;;;0.68;100.00
35989;BME280;22064;42.672;23.282;2023-03-19T01:54:33;95145.75;;;0.78;100.00
35989;BME280;22064;42.672;23.282;2023-03-19T01:57:24;95146.38;;;0.80;100.00
35989;BME280;22064;42.672;23.282;2023-03-19T02:00:09;95144.94;;;0.77;100.00
35989;BME280;22064;42.672;23.282;2023-03-19T02:02:46;95142.69;;;0.82;100.00
35989;BME280;22064;42.672;23.282;2023-03-19T02:05:24;95141.56;;;0.85;100.00
35989;BME280;22064;42.672;23.282;2023-03-19T02:08:05;95124.78;;;0.74;100.00
35989;BME280;22064;42.672;23.282;2023-03-19T02:10:32;95143.69;;;0.42;100.00
35989;BME280;22064;42.672;23.282;2023-03-19T02:12:59;95148.03;;;0.33;100.00
35989;BME280;22064;42.672;23.282;2023-03-19T02:15:25;95131.81;;;0.10;100.00
35989;BME280;22064;42.672;23.282;2023-03-19T02:17:51;95126.50;;;0.03;100.00
35989;BME280;22064;42.672;23.282;2023-03-19T02:20:29;95132.78;;;0.01;100.00
35989;BME280;22064;42.672;23.282;2023-03-19T02:23:14;95132.66;;;-0.06;100.00
35989;BME280;22064;42.672;23.282;2023-03-19T02:25:50;95137.75;;;-0.06;100.00
35989;BME280;22064;42.672;23.282;2023-03-19T02:28:20;95134.56;;;-0.08;100.00
35989;BME280;22064;42.672;23.282;2023-03-19T02:30:51;95135.53;;;-0.26;100.00
35989;BME280;22064;42.672;23.282;2023-03-19T02:33:18;95136.22;;;-0.40;100.00
35989;BME280;22064;42.672;23.282;2023-03-19T02:35:49;95135.25;;;-0.47;100.00
35989;BME280;22064;42.672;23.282;2023-03-19T02:38:18;95137.19;;;-0.49;100.00
35989;BME280;22064;42.672;23.282;2023-03-19T02:41:07;95134.78;;;-0.51;100.00
35989;BME280;22064;42.672;23.282;2023-03-19T02:43:35;95132.38;;;-0.52;100.00
35989;BME280;22064;42.672;23.282;2023-03-19T02:46:03;95141.31;;;-0.48;100.00
35989;BME280;22064;42.672;23.282;2023-03-19T02:48:30;95152.53;;;-0.49;100.00
35989;BME280;22064;42.672;23.282;2023-03-19T02:50:57;95148.84;;;-0.55;100.00
35989;BME280;22064;42.672;23.282;2023-03-19T02:53:24;95141.16;;;-0.30;100.00
35989;BME280;22064;42.672;23.282;2023-03-19T02:55:51;95144.47;;;-0.13;100.00
35989;BME280;22064;42.672;23.282;2023-03-19T02:58:17;95142.59;;;-0.28;100.00
35989;BME280;22064;42.672;23.282;2023-03-19T03:00:43;95145.00;;;-0.34;100.00
35989;BME280;22064;42.672;23.282;2023-03-19T03:03:09;95150.38;;;-0.13;100.00
35989;BME280;22064;42.672;23.282;2023-03-19T03:05:36;95147.69;;;-0.19;100.00
35989;BME280;22064;42.672;23.282;2023-03-19T03:08:02;95152.03;;;-0.36;100.00
35989;BME280;22064;42.672;23.282;2023-03-19T03:10:30;95159.06;;;-0.38;100.00
35989;BME280;22064;42.672;23.282;2023-03-19T03:12:56;95163.25;;;-0.45;100.00
35989;BME280;22064;42.672;23.282;2023-03-19T03:15:23;95158.44;;;-0.57;100.00
35989;BME280;22064;42.672;23.282;2023-03-19T03:17:49;95158.44;;;-0.65;100.00
35989;BME280;22064;42.672;23.282;2023-03-19T03:20:16;95147.56;;;-0.91;100.00
35989;BME280;22064;42.672;23.282;2023-03-19T03:22:44;95169.91;;;-0.94;100.00
35989;BME280;22064;42.672;23.282;2023-03-19T03:25:10;95155.03;;;-1.06;100.00
35989;BME280;22064;42.672;23.282;2023-03-19T03:27:37;95162.38;;;-1.11;100.00
35989;BME280;22064;42.672;23.282;2023-03-19T03:30:04;95166.88;;;-1.05;100.00
35989;BME280;22064;42.672;23.282;2023-03-19T03:32:34;95161.59;;;-1.12;100.00
35989;BME280;22064;42.672;23.282;2023-03-19T03:35:01;95168.47;;;-1.04;100.00
35989;BME280;22064;42.672;23.282;2023-03-19T03:37:28;95153.13;;;-1.04;100.00
35989;BME280;22064;42.672;23.282;2023-03-19T03:39:54;95155.69;;;-0.88;100.00
35989;BME280;22064;42.672;23.282;2023-03-19T03:42:20;95160.50;;;-0.93;100.00
35989;BME280;22064;42.672;23.282;2023-03-19T03:44:46;95163.38;;;-0.96;100.00
35989;BME280;22064;42.672;23.282;2023-03-19T03:47:12;95160.81;;;-0.96;100.00
35989;BME280;22064;42.672;23.282;2023-03-19T03:49:38;95166.56;;;-1.02;100.00
35989;BME280;22064;42.672;23.282;2023-03-19T03:52:04;95171.50;;;-1.01;100.00
35989;BME280;22064;42.672;23.282;2023-03-19T03:54:31;95188.78;;;-0.95;100.00
35989;BME280;22064;42.672;23.282;2023-03-19T03:56:57;95185.41;;;-0.95;100.00
35989;BME280;22064;42.672;23.282;2023-03-19T03:59:23;95174.72;;;-0.90;100.00
35989;BME280;22064;42.672;23.282;2023-03-19T04:01:50;95171.69;;;-0.70;100.00
35989;BME280;22064;42.672;23.282;2023-03-19T04:04:16;95173.78;;;-0.57;100.00
35989;BME280;22064;42.672;23.282;2023-03-19T04:06:45;95168.34;;;-0.70;100.00
35989;BME280;22064;42.672;23.282;2023-03-19T04:09:29;95172.53;;;-0.53;100.00
35989;BME280;22064;42.672;23.282;2023-03-19T04:11:55;95173.16;;;-0.42;100.00
35989;BME280;22064;42.672;23.282;2023-03-19T04:14:21;95166.59;;;-0.61;100.00
35989;BME280;22064;42.672;23.282;2023-03-19T04:16:47;95172.19;;;-0.41;100.00
35989;BME280;22064;42.672;23.282;2023-03-19T04:19:13;95175.06;;;-0.36;100.00
35989;BME280;22064;42.672;23.282;2023-03-19T04:21:40;95161.16;;;-0.34;100.00
35989;BME280;22064;42.672;23.282;2023-03-19T04:24:06;95158.28;;;-0.31;100.00
35989;BME280;22064;42.672;23.282;2023-03-19T04:26:32;95164.81;;;-0.28;100.00
35989;BME280;22064;42.672;23.282;2023-03-19T04:28:58;95167.56;;;-0.46;100.00
35989;BME280;22064;42.672;23.282;2023-03-19T04:31:24;95166.59;;;-0.37;100.00
35989;BME280;22064;42.672;23.282;2023-03-19T04:33:50;95175.22;;;-0.21;100.00
35989;BME280;22064;42.672;23.282;2023-03-19T04:36:15;95168.97;;;-0.19;100.00
35989;BME280;22064;42.672;23.282;2023-03-19T04:38:43;95184.16;;;-0.09;100.00
35989;BME280;22064;42.672;23.282;2023-03-19T04:41:08;95180.63;;;-0.08;100.00
35989;BME280;22064;42.672;23.282;2023-03-19T04:43:41;95173.94;;;-0.09;100.00
35989;BME280;22064;42.672;23.282;2023-03-19T04:46:07;95176.97;;;-0.06;100.00
35989;BME280;22064;42.672;23.282;2023-03-19T04:48:35;95178.56;;;-0.13;100.00
35989;BME280;22064;42.672;23.282;2023-03-19T04:51:01;95174.91;;;-0.18;100.00
35989;BME280;22064;42.672;23.282;2023-03-19T04:53:28;95176.00;;;-0.21;100.00
35989;BME280;22064;42.672;23.282;2023-03-19T04:55:55;95190.88;;;0.00;100.00
35989;BME280;22064;42.672;23.282;2023-03-19T04:58:21;95173.09;;;-0.02;100.00
35989;BME280;22064;42.672;23.282;2023-03-19T05:00:55;95182.19;;;0.17;100.00
35989;BME280;22064;42.672;23.282;2023-03-19T05:03:29;95191.75;;;0.32;100.00
35989;BME280;22064;42.672;23.282;2023-03-19T05:05:55;95171.09;;;0.33;100.00
35989;BME280;22064;42.672;23.282;2023-03-19T05:08:21;95182.31;;;0.32;100.00
35989;BME280;22064;42.672;23.282;2023-03-19T05:10:47;95179.25;;;0.37;100.00
35989;BME280;22064;42.672;23.282;2023-03-19T05:13:13;95192.00;;;0.53;100.00
35989;BME280;22064;42.672;23.282;2023-03-19T05:15:46;95193.41;;;0.56;100.00
35989;BME280;22064;42.672;23.282;2023-03-19T05:18:13;95167.34;;;0.52;100.00
35989;BME280;22064;42.672;23.282;2023-03-19T05:20:42;95182.28;;;0.72;100.00
35989;BME280;22064;42.672;23.282;2023-03-19T05:23:16;95174.88;;;0.85;100.00
35989;BME280;22064;42.672;23.282;2023-03-19T05:25:57;95185.84;;;1.02;100.00
35989;BME280;22064;42.672;23.282;2023-03-19T05:28:43;95182.69;;;1.23;100.00
35989;BME280;22064;42.672;23.282;2023-03-19T05:31:11;95186.25;;;1.36;100.00
35989;BME280;22064;42.672;23.282;2023-03-19T05:33:43;95190.81;;;1.26;100.00
35989;BME280;22064;42.672;23.282;2023-03-19T05:36:09;95180.63;;;1.41;100.00
35989;BME280;22064;42.672;23.282;2023-03-19T05:38:47;95196.78;;;1.50;100.00
35989;BME280;22064;42.672;23.282;2023-03-19T05:41:20;95184.75;;;1.50;100.00
35989;BME280;22064;42.672;23.282;2023-03-19T05:43:54;95191.06;;;1.63;100.00
35989;BME280;22064;42.672;23.282;2023-03-19T05:46:39;95188.41;;;1.71;100.00
35989;BME280;22064;42.672;23.282;2023-03-19T05:49:06;95196.31;;;1.69;100.00
35989;BME280;22064;42.672;23.282;2023-03-19T05:51:33;95188.59;;;1.69;100.00
35989;BME280;22064;42.672;23.282;2023-03-19T05:53:59;95196.31;;;1.69;100.00
35989;BME280;22064;42.672;23.282;2023-03-19T05:56:34;95199.13;;;1.74;100.00
35989;BME280;22064;42.672;23.282;2023-03-19T05:59:36;95193.09;;;1.67;100.00
35989;BME280;22064;42.672;23.282;2023-03-19T06:02:20;95199.81;;;1.68;100.00
35989;BME280;22064;42.672;23.282;2023-03-19T06:04:49;95203.31;;;1.75;100.00
35989;BME280;22064;42.672;23.282;2023-03-19T06:07:18;95198.03;;;1.92;100.00
35989;BME280;22064;42.672;23.282;2023-03-19T06:09:44;95177.78;;;1.97;100.00
35989;BME280;22064;42.672;23.282;2023-03-19T06:12:10;95186.16;;;2.05;100.00
35989;BME280;22064;42.672;23.282;2023-03-19T06:14:42;95195.94;;;2.10;100.00
35989;BME280;22064;42.672;23.282;2023-03-19T06:17:37;95197.97;;;2.15;100.00
35989;BME280;22064;42.672;23.282;2023-03-19T06:20:07;95197.38;;;2.42;100.00
35989;BME280;22064;42.672;23.282;2023-03-19T06:22:34;95181.66;;;2.52;100.00
35989;BME280;22064;42.672;23.282;2023-03-19T06:25:00;95202.31;;;2.73;100.00
35989;BME280;22064;42.672;23.282;2023-03-19T06:27:26;95194.69;;;2.80;100.00
35989;BME280;22064;42.672;23.282;2023-03-19T06:29:58;95198.66;;;2.97;100.00
35989;BME280;22064;42.672;23.282;2023-03-19T06:32:30;95193.16;;;3.00;100.00
35989;BME280;22064;42.672;23.282;2023-03-19T06:35:02;95203.88;;;3.40;100.00
35989;BME280;22064;42.672;23.282;2023-03-19T06:37:28;95199.81;;;3.31;100.00
35989;BME280;22064;42.672;23.282;2023-03-19T06:39:55;95209.00;;;3.19;100.00
35989;BME280;22064;42.672;23.282;2023-03-19T06:42:21;95201.13;;;3.06;100.00
35989;BME280;22064;42.672;23.282;2023-03-19T06:44:47;95216.84;;;3.32;100.00
35989;BME280;22064;42.672;23.282;2023-03-19T06:47:13;95220.72;;;3.43;100.00
35989;BME280;22064;42.672;23.282;2023-03-19T06:49:40;95230.03;;;3.44;100.00
35989;BME280;22064;42.672;23.282;2023-03-19T06:52:06;95235.00;;;3.45;100.00
35989;BME280;22064;42.672;23.282;2023-03-19T06:54:32;95226.38;;;3.53;100.00
35989;BME280;22064;42.672;23.282;2023-03-19T06:56:58;95238.94;;;3.63;100.00
35989;BME280;22064;42.672;23.282;2023-03-19T06:59:24;95233.03;;;3.90;100.00
35989;BME280;22064;42.672;23.282;2023-03-19T07:01:51;95228.69;;;3.91;100.00
35989;BME280;22064;42.672;23.282;2023-03-19T07:04:17;95221.47;;;4.08;100.00
35989;BME280;22064;42.672;23.282;2023-03-19T07:06:43;95221.06;;;4.04;100.00
35989;BME280;22064;42.672;23.282;2023-03-19T07:09:09;95226.91;;;4.20;100.00
35989;BME280;22064;42.672;23.282;2023-03-19T07:11:35;95225.50;;;4.17;100.00
35989;BME280;22064;42.672;23.282;2023-03-19T07:14:02;95218.91;;;4.36;100.00
35989;BME280;22064;42.672;23.282;2023-03-19T07:16:28;95227.88;;;4.40;100.00
35989;BME280;22064;42.672;23.282;2023-03-19T07:18:55;95229.44;;;4.41;100.00
35989;BME280;22064;42.672;23.282;2023-03-19T07:21:21;95226.41;;;4.59;100.00
35989;BME280;22064;42.672;23.282;2023-03-19T07:23:48;95234.34;;;4.64;100.00
35989;BME280;22064;42.672;23.282;2023-03-19T07:26:16;95221.63;;;4.56;100.00
35989;BME280;22064;42.672;23.282;2023-03-19T07:28:42;95222.28;;;4.71;100.00
35989;BME280;22064;42.672;23.282;2023-03-19T07:31:08;95218.31;;;4.69;100.00
35989;BME280;22064;42.672;23.282;2023-03-19T07:33:34;95216.91;;;4.66;100.00
35989;BME280;22064;42.672;23.282;2023-03-19T07:36:00;95215.59;;;4.77;100.00
35989;BME280;22064;42.672;23.282;2023-03-19T07:38:26;95217.56;;;4.81;100.00
35989;BME280;22064;42.672;23.282;2023-03-19T07:40:52;95218.38;;;4.89;98.70
35989;BME280;22064;42.672;23.282;2023-03-19T07:43:17;95216.66;;;4.96;96.85
35989;BME280;22064;42.672;23.282;2023-03-19T07:45:43;95212.84;;;4.92;96.63
35989;BME280;22064;42.672;23.282;2023-03-19T07:48:09;95214.72;;;5.11;95.47
35989;BME280;22064;42.672;23.282;2023-03-19T07:50:36;95227.88;;;5.29;87.78
35989;BME280;22064;42.672;23.282;2023-03-19T07:53:02;95231.44;;;5.22;91.23
35989;BME280;22064;42.672;23.282;2023-03-19T07:55:28;95229.47;;;5.24;91.25
35989;BME280;22064;42.672;23.282;2023-03-19T07:57:55;95227.53;;;5.39;92.90
35989;BME280;22064;42.672;23.282;2023-03-19T08:00:21;95220.75;;;5.45;91.17
35989;BME280;22064;42.672;23.282;2023-03-19T08:02:47;95219.78;;;5.39;91.42
35989;BME280;22064;42.672;23.282;2023-03-19T08:05:13;95212.47;;;5.56;90.51
35989;BME280;22064;42.672;23.282;2023-03-19T08:07:39;95214.44;;;5.61;84.90
35989;BME280;22064;42.672;23.282;2023-03-19T08:10:06;95219.19;;;5.57;86.81
35989;BME280;22064;42.672;23.282;2023-03-19T08:12:32;95215.84;;;5.63;86.01
35989;BME280;22064;42.672;23.282;2023-03-19T08:15:05;95212.06;;;5.72;83.84
35989;BME280;22064;42.672;23.282;2023-03-19T08:17:31;95220.88;;;5.98;79.46
35989;BME280;22064;42.672;23.282;2023-03-19T08:20:07;95228.44;;;6.13;78.15
35989;BME280;22064;42.672;23.282;2023-03-19T08:22:35;95229.63;;;6.23;76.92
35989;BME280;22064;42.672;23.282;2023-03-19T08:25:02;95222.06;;;6.48;75.38
35989;BME280;22064;42.672;23.282;2023-03-19T08:27:29;95217.03;;;6.54;73.33
35989;BME280;22064;42.672;23.282;2023-03-19T08:29:57;95229.97;;;6.60;72.27
35989;BME280;22064;42.672;23.282;2023-03-19T08:32:23;95226.00;;;6.64;70.93
35989;BME280;22064;42.672;23.282;2023-03-19T08:34:49;95225.19;;;6.57;68.97
35989;BME280;22064;42.672;23.282;2023-03-19T08:37:15;95228.16;;;6.74;67.55
35989;BME280;22064;42.672;23.282;2023-03-19T08:39:41;95207.31;;;6.49;67.86
35989;BME280;22064;42.672;23.282;2023-03-19T08:42:07;95206.53;;;6.48;69.63
35989;BME280;22064;42.672;23.282;2023-03-19T08:44:33;95206.75;;;6.34;71.90
35989;BME280;22064;42.672;23.282;2023-03-19T08:46:58;95216.91;;;5.95;73.08
35989;BME280;22064;42.672;23.282;2023-03-19T08:49:24;95190.47;;;5.93;74.48
35989;BME280;22064;42.672;23.282;2023-03-19T08:51:50;95214.94;;;6.11;75.30
35989;BME280;22064;42.672;23.282;2023-03-19T08:54:16;95193.63;;;6.22;73.06
35989;BME280;22064;42.672;23.282;2023-03-19T08:56:42;95179.50;;;6.24;73.97
35989;BME280;22064;42.672;23.282;2023-03-19T08:59:08;95191.00;;;6.35;70.39
35989;BME280;22064;42.672;23.282;2023-03-19T09:01:34;95187.47;;;6.30;69.39
35989;BME280;22064;42.672;23.282;2023-03-19T09:04:01;95191.00;;;6.48;68.13
35989;BME280;22064;42.672;23.282;2023-03-19T09:06:27;95177.91;;;6.30;68.72
35989;BME280;22064;42.672;23.282;2023-03-19T09:08:53;95187.03;;;6.46;69.93
35989;BME280;22064;42.672;23.282;2023-03-19T09:11:18;95185.84;;;6.48;68.55
35989;BME280;22064;42.672;23.282;2023-03-19T09:13:44;95179.28;;;6.39;68.03
35989;BME280;22064;42.672;23.282;2023-03-19T09:16:11;95184.41;;;6.59;66.97
35989;BME280;22064;42.672;23.282;2023-03-19T09:18:37;95171.00;;;6.82;64.92
35989;BME280;22064;42.672;23.282;2023-03-19T09:21:03;95175.78;;;6.79;62.02
35989;BME280;22064;42.672;23.282;2023-03-19T09:23:29;95178.97;;;6.81;60.63
35989;BME280;22064;42.672;23.282;2023-03-19T09:25:55;95179.81;;;7.13;60.67
35989;BME280;22064;42.672;23.282;2023-03-19T09:28:21;95175.72;;;7.37;61.43
35989;BME280;22064;42.672;23.282;2023-03-19T09:30:48;95169.31;;;7.71;60.60
35989;BME280;22064;42.672;23.282;2023-03-19T09:33:16;95156.16;;;7.98;58.97
35989;BME280;22064;42.672;23.282;2023-03-19T09:35:42;95171.66;;;8.04;57.16
35989;BME280;22064;42.672;23.282;2023-03-19T09:38:08;95173.59;;;8.09;55.97
35989;BME280;22064;42.672;23.282;2023-03-19T09:40:37;95160.97;;;8.38;55.11
35989;BME280;22064;42.672;23.282;2023-03-19T09:43:38;95157.97;;;8.41;54.81
35989;BME280;22064;42.672;23.282;2023-03-19T09:46:17;95164.78;;;8.17;54.89
35989;BME280;22064;42.672;23.282;2023-03-19T09:51:47;95156.41;;;8.15;54.95
35989;BME280;22064;42.672;23.282;2023-03-19T09:54:29;95141.72;;;8.27;54.51
35989;BME280;22064;42.672;23.282;2023-03-19T09:56:56;95146.38;;;8.62;54.51
35989;BME280;22064;42.672;23.282;2023-03-19T09:59:24;95154.59;;;8.95;53.30
35989;BME280;22064;42.672;23.282;2023-03-19T10:01:56;95141.38;;;9.27;52.70
35989;BME280;22064;42.672;23.282;2023-03-19T10:08:07;95142.97;;;9.28;51.23
35989;BME280;22064;42.672;23.282;2023-03-19T10:10:50;95137.72;;;9.46;51.44
35989;BME280;22064;42.672;23.282;2023-03-19T10:16:25;95133.63;;;9.92;49.63
35989;BME280;22064;42.672;23.282;2023-03-19T10:18:54;95120.75;;;10.09;49.89
35989;BME280;22064;42.672;23.282;2023-03-19T10:21:28;95124.03;;;10.28;48.35
35989;BME280;22064;42.672;23.282;2023-03-19T10:24:03;95121.19;;;10.53;47.70
35989;BME280;22064;42.672;23.282;2023-03-19T10:26:33;95118.00;;;10.63;47.05
35989;BME280;22064;42.672;23.282;2023-03-19T10:29:19;95110.09;;;10.11;47.30
35989;BME280;22064;42.672;23.282;2023-03-19T10:34:51;95096.28;;;10.22;46.85
35989;BME280;22064;42.672;23.282;2023-03-19T10:37:27;95097.44;;;10.26;46.60
35989;BME280;22064;42.672;23.282;2023-03-19T10:39:58;95091.53;;;10.43;46.17
35989;BME280;22064;42.672;23.282;2023-03-19T10:45:27;95075.03;;;11.06;45.44
35989;BME280;22064;42.672;23.282;2023-03-19T10:47:56;95075.69;;;11.30;44.81
35989;BME280;22064;42.672;23.282;2023-03-19T10:50:29;95070.91;;;11.39;43.88
35989;BME280;22064;42.672;23.282;2023-03-19T10:53:30;95064.41;;;11.58;43.72
35989;BME280;22064;42.672;23.282;2023-03-19T10:58:29;95054.72;;;11.87;43.05
35989;BME280;22064;42.672;23.282;2023-03-19T11:01:10;95045.34;;;12.08;42.47
35989;BME280;22064;42.672;23.282;2023-03-19T11:03:39;95046.03;;;12.20;41.94
35989;BME280;22064;42.672;23.282;2023-03-19T11:08:39;95040.69;;;12.54;41.72
35989;BME280;22064;42.672;23.282;2023-03-19T11:11:05;95033.03;;;12.69;41.67
35989;BME280;22064;42.672;23.282;2023-03-19T11:13:33;95044.03;;;12.71;40.84
35989;BME280;22064;42.672;23.282;2023-03-19T11:16:00;95010.81;;;12.01;41.39
35989;BME280;22064;42.672;23.282;2023-03-19T11:18:29;95024.34;;;12.20;41.91
35989;BME280;22064;42.672;23.282;2023-03-19T11:20:59;94999.72;;;12.33;41.61
35989;BME280;22064;42.672;23.282;2023-03-19T11:23:28;95017.63;;;12.68;41.38
35989;BME280;22064;42.672;23.282;2023-03-19T11:25:58;95012.84;;;12.87;41.27
35989;BME280;22064;42.672;23.282;2023-03-19T11:28:26;95002.63;;;13.12;40.91
35989;BME280;22064;42.672;23.282;2023-03-19T11:36:12;95001.41;;;12.22;41.61
35989;BME280;22064;42.672;23.282;2023-03-19T11:38:57;94990.91;;;12.39;41.78
35989;BME280;22064;42.672;23.282;2023-03-19T11:44:14;94985.72;;;12.93;40.78
35989;BME280;22064;42.672;23.282;2023-03-19T11:46:50;94972.06;;;12.86;41.14
35989;BME280;22064;42.672;23.282;2023-03-19T11:49:29;94974.94;;;13.16;40.59
35989;BME280;22064;42.672;23.282;2023-03-19T11:52:21;94971.75;;;13.36;40.55
35989;BME280;22064;42.672;23.282;2023-03-19T11:55:13;94963.94;;;13.89;39.77
35989;BME280;22064;42.672;23.282;2023-03-19T11:58:23;94964.91;;;14.30;39.43
35989;BME280;22064;42.672;23.282;2023-03-19T12:00:50;94954.00;;;14.54;38.22
35989;BME280;22064;42.672;23.282;2023-03-19T12:06:06;94948.56;;;14.91;37.22
35989;BME280;22064;42.672;23.282;2023-03-19T12:11:23;94942.00;;;15.24;36.79
35989;BME280;22064;42.672;23.282;2023-03-19T12:14:04;94929.44;;;15.27;37.05
35989;BME280;22064;42.672;23.282;2023-03-19T12:22:10;94936.22;;;15.43;36.73
35989;BME280;22064;42.672;23.282;2023-03-19T12:27:46;94928.88;;;15.70;36.78
35989;BME280;22064;42.672;23.282;2023-03-19T12:30:31;94933.88;;;15.67;36.08
35989;BME280;22064;42.672;23.282;2023-03-19T12:33:21;94925.34;;;16.06;35.46
35989;BME280;22064;42.672;23.282;2023-03-19T12:35:57;94925.47;;;15.55;35.71
35989;BME280;22064;42.672;23.282;2023-03-19T12:38:40;94915.53;;;15.00;37.07
35989;BME280;22064;42.672;23.282;2023-03-19T12:41:09;94907.13;;;15.39;36.39
35989;BME280;22064;42.672;23.282;2023-03-19T12:43:45;94912.34;;;15.29;36.50
35989;BME280;22064;42.672;23.282;2023-03-19T12:46:22;94914.97;;;15.55;35.96
35989;BME280;22064;42.672;23.282;2023-03-19T12:48:59;94917.09;;;15.27;36.47
35989;BME280;22064;42.672;23.282;2023-03-19T12:51:34;94908.69;;;15.25;36.73
35989;BME280;22064;42.672;23.282;2023-03-19T12:54:09;94901.91;;;14.98;36.62
35989;BME280;22064;42.672;23.282;2023-03-19T13:05:34;94897.97;;;14.70;37.52
35989;BME280;22064;42.672;23.282;2023-03-19T13:08:26;94890.63;;;15.08;37.41
35989;BME280;22064;42.672;23.282;2023-03-19T13:10:53;94888.00;;;14.93;37.45
35989;BME280;22064;42.672;23.282;2023-03-19T13:19:15;94884.97;;;15.86;36.11
35989;BME280;22064;42.672;23.282;2023-03-19T13:21:44;94888.03;;;16.04;36.26
35989;BME280;22064;42.672;23.282;2023-03-19T13:24:28;94873.66;;;16.40;35.54
35989;BME280;22064;42.672;23.282;2023-03-19T13:26:57;94872.00;;;16.94;35.16
35989;BME280;22064;42.672;23.282;2023-03-19T13:29:30;94864.53;;;17.60;34.19
35989;BME280;22064;42.672;23.282;2023-03-19T13:32:01;94845.75;;;18.14;33.68
35989;BME280;22064;42.672;23.282;2023-03-19T13:34:31;94866.47;;;18.59;32.53
35989;BME280;22064;42.672;23.282;2023-03-19T13:39:27;94857.31;;;19.08;31.63
35989;BME280;22064;42.672;23.282;2023-03-19T13:42:09;94867.84;;;19.08;31.45
35989;BME280;22064;42.672;23.282;2023-03-19T13:44:41;94861.53;;;18.90;31.58
35989;BME280;22064;42.672;23.282;2023-03-19T13:55:28;94854.25;;;20.16;30.27
35989;BME280;22064;42.672;23.282;2023-03-19T14:03:27;94849.69;;;20.44;29.87
35989;BME280;22064;42.672;23.282;2023-03-19T14:05:55;94832.81;;;21.30;29.62
35989;BME280;22064;42.672;23.282;2023-03-19T14:08:26;94843.69;;;20.02;29.60
35989;BME280;22064;42.672;23.282;2023-03-19T14:10:58;94836.44;;;19.53;30.49
35989;BME280;22064;42.672;23.282;2023-03-19T14:13:32;94826.28;;;19.60;30.51
35989;BME280;22064;42.672;23.282;2023-03-19T14:16:15;94841.13;;;20.25;29.88
35989;BME280;22064;42.672;23.282;2023-03-19T14:18:42;94833.28;;;21.01;29.29
35989;BME280;22064;42.672;23.282;2023-03-19T14:21:12;94825.28;;;21.46;28.54